Terminal Aerodrome Forecast
Issued by NWS

Home | Current Version | Previous Version | Text Only | Print | Product List | Glossary On
Versions: 1 2 3 4 5 6 7 8 9 10 11
495
FTUS43 KJKL 230539
TAFSME
TAF
KSME 230539Z 2306/2406 18006KT P6SM FEW030 WS020/22045KT
     FM231000 19007KT P6SM BKN025 WS020/22045KT
     FM231800 21012G19KT P6SM VCTS BKN035CB BKN200
     FM232300 21011G18KT 2SM SHRA BR VCTS OVC015CB
     FM240200 29005KT 2SM SHRA BR OVC008=

USA.gov is the U.S. government's official web portal to all federal, state and local government web resources and services.